sensor_id;sensor_type;location;lat;lon;timestamp;P1;durP1;ratioP1;P2;durP2;ratioP2
19985;SDS011;10154;52.474;10.768;2023-08-07T00:02:09;7.72;;;2.65;;
19985;SDS011;10154;52.474;10.768;2023-08-07T00:04:34;4.85;;;3.05;;
19985;SDS011;10154;52.474;10.768;2023-08-07T00:07:00;4.28;;;2.55;;
19985;SDS011;10154;52.474;10.768;2023-08-07T00:09:25;3.65;;;2.67;;
19985;SDS011;10154;52.474;10.768;2023-08-07T00:11:50;6.07;;;2.85;;
19985;SDS011;10154;52.474;10.768;2023-08-07T00:14:16;6.60;;;2.83;;
19985;SDS011;10154;52.474;10.768;2023-08-07T00:16:41;8.18;;;2.53;;
19985;SDS011;10154;52.474;10.768;2023-08-07T00:19:07;6.95;;;3.00;;
19985;SDS011;10154;52.474;10.768;2023-08-07T00:21:33;6.57;;;2.95;;
19985;SDS011;10154;52.474;10.768;2023-08-07T00:24:00;5.82;;;2.60;;
19985;SDS011;10154;52.474;10.768;2023-08-07T00:26:26;4.25;;;2.83;;
19985;SDS011;10154;52.474;10.768;2023-08-07T00:28:52;6.20;;;2.85;;
19985;SDS011;10154;52.474;10.768;2023-08-07T00:31:19;5.93;;;2.63;;
19985;SDS011;10154;52.474;10.768;2023-08-07T00:33:44;5.65;;;2.83;;
19985;SDS011;10154;52.474;10.768;2023-08-07T00:36:10;5.93;;;2.83;;
19985;SDS011;10154;52.474;10.768;2023-08-07T00:38:37;4.20;;;2.40;;
19985;SDS011;10154;52.474;10.768;2023-08-07T00:41:03;4.65;;;2.28;;
19985;SDS011;10154;52.474;10.768;2023-08-07T00:43:28;5.75;;;2.50;;
19985;SDS011;10154;52.474;10.768;2023-08-07T00:45:53;4.20;;;2.20;;
19985;SDS011;10154;52.474;10.768;2023-08-07T00:48:19;6.28;;;2.88;;
19985;SDS011;10154;52.474;10.768;2023-08-07T00:50:44;4.53;;;2.70;;
19985;SDS011;10154;52.474;10.768;2023-08-07T00:53:11;5.60;;;2.43;;
19985;SDS011;10154;52.474;10.768;2023-08-07T00:55:36;4.35;;;2.20;;
19985;SDS011;10154;52.474;10.768;2023-08-07T00:58:01;5.18;;;2.83;;
19985;SDS011;10154;52.474;10.768;2023-08-07T01:00:28;3.67;;;2.50;;
19985;SDS011;10154;52.474;10.768;2023-08-07T01:02:55;5.38;;;2.60;;
19985;SDS011;10154;52.474;10.768;2023-08-07T01:05:23;7.53;;;3.33;;
19985;SDS011;10154;52.474;10.768;2023-08-07T01:07:49;6.95;;;3.03;;
19985;SDS011;10154;52.474;10.768;2023-08-07T01:10:19;6.32;;;3.63;;
19985;SDS011;10154;52.474;10.768;2023-08-07T01:12:52;6.57;;;2.95;;
19985;SDS011;10154;52.474;10.768;2023-08-07T01:15:25;8.30;;;3.50;;
19985;SDS011;10154;52.474;10.768;2023-08-07T01:17:54;4.97;;;3.13;;
19985;SDS011;10154;52.474;10.768;2023-08-07T01:20:20;7.68;;;3.10;;
19985;SDS011;10154;52.474;10.768;2023-08-07T01:22:46;7.40;;;2.88;;
19985;SDS011;10154;52.474;10.768;2023-08-07T01:25:11;10.30;;;2.97;;
19985;SDS011;10154;52.474;10.768;2023-08-07T01:27:41;9.38;;;3.15;;
19985;SDS011;10154;52.474;10.768;2023-08-07T01:30:17;5.85;;;3.28;;
19985;SDS011;10154;52.474;10.768;2023-08-07T01:33:16;5.47;;;3.00;;
19985;SDS011;10154;52.474;10.768;2023-08-07T01:35:49;5.20;;;2.60;;
19985;SDS011;10154;52.474;10.768;2023-08-07T01:38:20;5.65;;;2.88;;
19985;SDS011;10154;52.474;10.768;2023-08-07T01:40:46;4.00;;;2.60;;
19985;SDS011;10154;52.474;10.768;2023-08-07T01:43:13;5.33;;;3.40;;
19985;SDS011;10154;52.474;10.768;2023-08-07T01:45:38;6.53;;;3.00;;
19985;SDS011;10154;52.474;10.768;2023-08-07T01:48:04;4.03;;;2.57;;
19985;SDS011;10154;52.474;10.768;2023-08-07T01:50:29;6.77;;;2.90;;
19985;SDS011;10154;52.474;10.768;2023-08-07T01:52:55;3.70;;;2.50;;
19985;SDS011;10154;52.474;10.768;2023-08-07T01:55:20;5.37;;;2.53;;
19985;SDS011;10154;52.474;10.768;2023-08-07T01:57:47;6.50;;;2.50;;
19985;SDS011;10154;52.474;10.768;2023-08-07T02:00:12;4.80;;;2.27;;
19985;SDS011;10154;52.474;10.768;2023-08-07T02:02:38;4.10;;;2.40;;
19985;SDS011;10154;52.474;10.768;2023-08-07T02:05:03;4.65;;;2.40;;
19985;SDS011;10154;52.474;10.768;2023-08-07T02:07:29;4.17;;;2.27;;
19985;SDS011;10154;52.474;10.768;2023-08-07T02:09:55;5.57;;;2.50;;
19985;SDS011;10154;52.474;10.768;2023-08-07T02:12:20;6.13;;;2.90;;
19985;SDS011;10154;52.474;10.768;2023-08-07T02:14:46;6.07;;;2.63;;
19985;SDS011;10154;52.474;10.768;2023-08-07T02:17:11;6.50;;;2.70;;
19985;SDS011;10154;52.474;10.768;2023-08-07T02:19:36;8.18;;;2.97;;
19985;SDS011;10154;52.474;10.768;2023-08-07T02:22:02;5.13;;;2.70;;
19985;SDS011;10154;52.474;10.768;2023-08-07T02:24:28;3.83;;;2.70;;
19985;SDS011;10154;52.474;10.768;2023-08-07T02:26:53;7.00;;;2.90;;
19985;SDS011;10154;52.474;10.768;2023-08-07T02:29:19;4.90;;;2.85;;
19985;SDS011;10154;52.474;10.768;2023-08-07T02:31:44;6.63;;;2.88;;
19985;SDS011;10154;52.474;10.768;2023-08-07T02:34:09;6.03;;;2.60;;
19985;SDS011;10154;52.474;10.768;2023-08-07T02:36:35;6.00;;;2.80;;
19985;SDS011;10154;52.474;10.768;2023-08-07T02:39:00;6.28;;;2.83;;
19985;SDS011;10154;52.474;10.768;2023-08-07T02:41:25;6.97;;;2.42;;
19985;SDS011;10154;52.474;10.768;2023-08-07T02:43:51;6.82;;;3.35;;
19985;SDS011;10154;52.474;10.768;2023-08-07T02:46:16;9.57;;;3.27;;
19985;SDS011;10154;52.474;10.768;2023-08-07T02:48:43;6.55;;;3.42;;
19985;SDS011;10154;52.474;10.768;2023-08-07T02:51:09;9.53;;;3.87;;
19985;SDS011;10154;52.474;10.768;2023-08-07T02:53:35;6.45;;;3.55;;
19985;SDS011;10154;52.474;10.768;2023-08-07T02:56:00;6.93;;;3.78;;
19985;SDS011;10154;52.474;10.768;2023-08-07T02:58:26;6.20;;;3.40;;
19985;SDS011;10154;52.474;10.768;2023-08-07T03:00:51;5.53;;;3.20;;
19985;SDS011;10154;52.474;10.768;2023-08-07T03:03:16;5.90;;;2.77;;
19985;SDS011;10154;52.474;10.768;2023-08-07T03:05:51;6.03;;;2.63;;
19985;SDS011;10154;52.474;10.768;2023-08-07T03:08:16;5.43;;;3.10;;
19985;SDS011;10154;52.474;10.768;2023-08-07T03:10:42;7.68;;;3.10;;
19985;SDS011;10154;52.474;10.768;2023-08-07T03:13:14;3.55;;;2.58;;
19985;SDS011;10154;52.474;10.768;2023-08-07T03:15:39;7.13;;;2.97;;
19985;SDS011;10154;52.474;10.768;2023-08-07T03:18:04;5.15;;;2.95;;
19985;SDS011;10154;52.474;10.768;2023-08-07T03:20:30;4.13;;;2.40;;
19985;SDS011;10154;52.474;10.768;2023-08-07T03:22:55;12.30;;;2.85;;
19985;SDS011;10154;52.474;10.768;2023-08-07T03:25:20;5.57;;;2.80;;
19985;SDS011;10154;52.474;10.768;2023-08-07T03:27:46;5.90;;;2.88;;
19985;SDS011;10154;52.474;10.768;2023-08-07T03:30:11;10.10;;;2.97;;
19985;SDS011;10154;52.474;10.768;2023-08-07T03:32:36;5.78;;;2.90;;
19985;SDS011;10154;52.474;10.768;2023-08-07T03:35:02;6.18;;;2.88;;
19985;SDS011;10154;52.474;10.768;2023-08-07T03:37:27;6.47;;;3.10;;
19985;SDS011;10154;52.474;10.768;2023-08-07T03:39:52;7.47;;;3.40;;
19985;SDS011;10154;52.474;10.768;2023-08-07T03:42:18;5.05;;;2.95;;
19985;SDS011;10154;52.474;10.768;2023-08-07T03:44:43;4.38;;;2.97;;
19985;SDS011;10154;52.474;10.768;2023-08-07T03:47:09;5.57;;;3.50;;
19985;SDS011;10154;52.474;10.768;2023-08-07T03:49:34;7.22;;;3.35;;
19985;SDS011;10154;52.474;10.768;2023-08-07T03:51:59;9.20;;;3.45;;
19985;SDS011;10154;52.474;10.768;2023-08-07T03:54:25;7.00;;;3.10;;
19985;SDS011;10154;52.474;10.768;2023-08-07T03:56:50;7.85;;;3.28;;
19985;SDS011;10154;52.474;10.768;2023-08-07T03:59:16;6.78;;;3.42;;
19985;SDS011;10154;52.474;10.768;2023-08-07T04:01:42;7.75;;;3.58;;
19985;SDS011;10154;52.474;10.768;2023-08-07T04:04:08;5.30;;;2.92;;
19985;SDS011;10154;52.474;10.768;2023-08-07T04:06:33;6.70;;;3.33;;
19985;SDS011;10154;52.474;10.768;2023-08-07T04:08:58;11.07;;;3.38;;
19985;SDS011;10154;52.474;10.768;2023-08-07T04:11:23;10.52;;;3.03;;
19985;SDS011;10154;52.474;10.768;2023-08-07T04:13:49;8.60;;;3.28;;
19985;SDS011;10154;52.474;10.768;2023-08-07T04:16:14;6.47;;;2.80;;
19985;SDS011;10154;52.474;10.768;2023-08-07T04:18:40;8.18;;;3.20;;
19985;SDS011;10154;52.474;10.768;2023-08-07T04:21:05;3.97;;;3.00;;
19985;SDS011;10154;52.474;10.768;2023-08-07T04:23:31;3.35;;;2.10;;
19985;SDS011;10154;52.474;10.768;2023-08-07T04:25:56;5.65;;;3.00;;
19985;SDS011;10154;52.474;10.768;2023-08-07T04:28:22;4.85;;;2.80;;
19985;SDS011;10154;52.474;10.768;2023-08-07T04:30:50;8.02;;;3.28;;
19985;SDS011;10154;52.474;10.768;2023-08-07T04:33:17;5.57;;;3.10;;
19985;SDS011;10154;52.474;10.768;2023-08-07T04:35:42;7.70;;;3.20;;
19985;SDS011;10154;52.474;10.768;2023-08-07T04:38:08;4.70;;;3.10;;
19985;SDS011;10154;52.474;10.768;2023-08-07T04:40:33;8.38;;;3.88;;
19985;SDS011;10154;52.474;10.768;2023-08-07T04:42:59;6.10;;;3.37;;
19985;SDS011;10154;52.474;10.768;2023-08-07T04:45:24;5.97;;;3.50;;
19985;SDS011;10154;52.474;10.768;2023-08-07T04:47:50;7.40;;;3.13;;
19985;SDS011;10154;52.474;10.768;2023-08-07T04:50:15;6.65;;;3.30;;
19985;SDS011;10154;52.474;10.768;2023-08-07T04:52:41;5.73;;;3.20;;
19985;SDS011;10154;52.474;10.768;2023-08-07T04:55:06;5.23;;;3.10;;
19985;SDS011;10154;52.474;10.768;2023-08-07T04:57:32;7.03;;;3.10;;
19985;SDS011;10154;52.474;10.768;2023-08-07T04:59:57;4.93;;;3.15;;
19985;SDS011;10154;52.474;10.768;2023-08-07T05:02:22;9.67;;;3.30;;
19985;SDS011;10154;52.474;10.768;2023-08-07T05:04:48;4.60;;;2.93;;
19985;SDS011;10154;52.474;10.768;2023-08-07T05:07:13;9.73;;;3.20;;
19985;SDS011;10154;52.474;10.768;2023-08-07T05:09:38;4.40;;;2.80;;
19985;SDS011;10154;52.474;10.768;2023-08-07T05:12:04;6.70;;;3.80;;
19985;SDS011;10154;52.474;10.768;2023-08-07T05:14:31;5.37;;;3.43;;
19985;SDS011;10154;52.474;10.768;2023-08-07T05:16:57;4.83;;;3.23;;
19985;SDS011;10154;52.474;10.768;2023-08-07T05:19:22;4.90;;;2.90;;
19985;SDS011;10154;52.474;10.768;2023-08-07T05:21:48;6.60;;;3.33;;
19985;SDS011;10154;52.474;10.768;2023-08-07T05:24:15;5.57;;;3.00;;
19985;SDS011;10154;52.474;10.768;2023-08-07T05:26:41;4.57;;;2.70;;
19985;SDS011;10154;52.474;10.768;2023-08-07T05:29:07;6.20;;;2.80;;
19985;SDS011;10154;52.474;10.768;2023-08-07T05:31:32;5.23;;;3.00;;
19985;SDS011;10154;52.474;10.768;2023-08-07T05:33:58;6.20;;;3.40;;
19985;SDS011;10154;52.474;10.768;2023-08-07T05:36:23;6.10;;;3.33;;
19985;SDS011;10154;52.474;10.768;2023-08-07T05:38:49;5.90;;;3.10;;
19985;SDS011;10154;52.474;10.768;2023-08-07T05:41:14;5.80;;;3.80;;
19985;SDS011;10154;52.474;10.768;2023-08-07T05:43:39;4.70;;;3.03;;
19985;SDS011;10154;52.474;10.768;2023-08-07T05:46:05;4.82;;;3.17;;
19985;SDS011;10154;52.474;10.768;2023-08-07T05:48:30;7.40;;;2.97;;
19985;SDS011;10154;52.474;10.768;2023-08-07T05:50:55;6.50;;;2.80;;
19985;SDS011;10154;52.474;10.768;2023-08-07T05:53:20;5.77;;;3.40;;
19985;SDS011;10154;52.474;10.768;2023-08-07T05:55:46;6.38;;;3.58;;
19985;SDS011;10154;52.474;10.768;2023-08-07T05:58:11;5.30;;;2.97;;
19985;SDS011;10154;52.474;10.768;2023-08-07T06:00:37;11.70;;;3.47;;
19985;SDS011;10154;52.474;10.768;2023-08-07T06:03:02;7.20;;;3.17;;
19985;SDS011;10154;52.474;10.768;2023-08-07T06:05:28;5.37;;;3.10;;
19985;SDS011;10154;52.474;10.768;2023-08-07T06:07:53;6.17;;;3.40;;
19985;SDS011;10154;52.474;10.768;2023-08-07T06:10:18;5.10;;;2.80;;
19985;SDS011;10154;52.474;10.768;2023-08-07T06:12:44;6.47;;;3.10;;
19985;SDS011;10154;52.474;10.768;2023-08-07T06:15:09;5.37;;;3.10;;
19985;SDS011;10154;52.474;10.768;2023-08-07T06:17:35;5.63;;;3.20;;
19985;SDS011;10154;52.474;10.768;2023-08-07T06:20:00;5.73;;;2.80;;
19985;SDS011;10154;52.474;10.768;2023-08-07T06:22:25;6.40;;;3.30;;
19985;SDS011;10154;52.474;10.768;2023-08-07T06:24:51;7.03;;;3.00;;
19985;SDS011;10154;52.474;10.768;2023-08-07T06:27:16;4.20;;;2.53;;
19985;SDS011;10154;52.474;10.768;2023-08-07T06:29:41;3.83;;;2.10;;
19985;SDS011;10154;52.474;10.768;2023-08-07T06:32:07;3.13;;;1.95;;
19985;SDS011;10154;52.474;10.768;2023-08-07T06:34:32;4.53;;;2.25;;
19985;SDS011;10154;52.474;10.768;2023-08-07T06:36:58;3.55;;;1.85;;
19985;SDS011;10154;52.474;10.768;2023-08-07T06:39:23;3.80;;;1.98;;
19985;SDS011;10154;52.474;10.768;2023-08-07T06:41:48;3.15;;;1.73;;
19985;SDS011;10154;52.474;10.768;2023-08-07T06:44:14;2.13;;;1.52;;
19985;SDS011;10154;52.474;10.768;2023-08-07T06:46:39;1.73;;;1.10;;
19985;SDS011;10154;52.474;10.768;2023-08-07T06:49:05;3.23;;;1.50;;
19985;SDS011;10154;52.474;10.768;2023-08-07T06:51:30;1.52;;;1.10;;
19985;SDS011;10154;52.474;10.768;2023-08-07T06:53:56;5.10;;;1.35;;
19985;SDS011;10154;52.474;10.768;2023-08-07T06:56:21;3.20;;;1.50;;
19985;SDS011;10154;52.474;10.768;2023-08-07T06:58:47;2.20;;;1.20;;
19985;SDS011;10154;52.474;10.768;2023-08-07T07:01:12;2.27;;;1.10;;
19985;SDS011;10154;52.474;10.768;2023-08-07T07:03:37;2.40;;;1.40;;
19985;SDS011;10154;52.474;10.768;2023-08-07T07:06:03;1.30;;;1.10;;
19985;SDS011;10154;52.474;10.768;2023-08-07T07:08:28;2.20;;;1.10;;
19985;SDS011;10154;52.474;10.768;2023-08-07T07:10:54;2.90;;;1.27;;
19985;SDS011;10154;52.474;10.768;2023-08-07T07:13:19;2.03;;;1.30;;
19985;SDS011;10154;52.474;10.768;2023-08-07T07:15:45;2.87;;;1.33;;
19985;SDS011;10154;52.474;10.768;2023-08-07T07:18:10;2.42;;;1.20;;
19985;SDS011;10154;52.474;10.768;2023-08-07T07:20:35;2.57;;;1.20;;
19985;SDS011;10154;52.474;10.768;2023-08-07T07:23:01;3.17;;;1.50;;
19985;SDS011;10154;52.474;10.768;2023-08-07T07:25:26;3.17;;;1.60;;
19985;SDS011;10154;52.474;10.768;2023-08-07T07:27:52;2.90;;;1.65;;
19985;SDS011;10154;52.474;10.768;2023-08-07T07:30:17;4.47;;;1.83;;
19985;SDS011;10154;52.474;10.768;2023-08-07T07:32:42;2.30;;;1.60;;
19985;SDS011;10154;52.474;10.768;2023-08-07T07:35:08;2.60;;;1.63;;
19985;SDS011;10154;52.474;10.768;2023-08-07T07:37:33;5.23;;;2.10;;
19985;SDS011;10154;52.474;10.768;2023-08-07T07:39:59;5.57;;;2.00;;
19985;SDS011;10154;52.474;10.768;2023-08-07T07:42:24;3.83;;;1.97;;
19985;SDS011;10154;52.474;10.768;2023-08-07T07:44:50;4.90;;;2.10;;
19985;SDS011;10154;52.474;10.768;2023-08-07T07:47:15;4.43;;;2.40;;
19985;SDS011;10154;52.474;10.768;2023-08-07T07:49:44;5.33;;;2.00;;
19985;SDS011;10154;52.474;10.768;2023-08-07T07:52:11;4.15;;;2.30;;
19985;SDS011;10154;52.474;10.768;2023-08-07T07:54:37;4.10;;;2.42;;
19985;SDS011;10154;52.474;10.768;2023-08-07T07:57:02;3.87;;;2.00;;
19985;SDS011;10154;52.474;10.768;2023-08-07T07:59:27;5.22;;;2.58;;
19985;SDS011;10154;52.474;10.768;2023-08-07T08:01:53;3.47;;;2.20;;
19985;SDS011;10154;52.474;10.768;2023-08-07T08:04:18;6.72;;;2.40;;
19985;SDS011;10154;52.474;10.768;2023-08-07T08:06:44;6.28;;;2.45;;
19985;SDS011;10154;52.474;10.768;2023-08-07T08:09:09;3.15;;;1.98;;
19985;SDS011;10154;52.474;10.768;2023-08-07T08:11:35;3.63;;;2.00;;
19985;SDS011;10154;52.474;10.768;2023-08-07T08:14:00;3.45;;;2.00;;
19985;SDS011;10154;52.474;10.768;2023-08-07T08:16:25;2.50;;;1.90;;
19985;SDS011;10154;52.474;10.768;2023-08-07T08:18:51;2.97;;;1.75;;
19985;SDS011;10154;52.474;10.768;2023-08-07T08:21:16;6.38;;;2.15;;
19985;SDS011;10154;52.474;10.768;2023-08-07T08:23:41;3.20;;;1.90;;
19985;SDS011;10154;52.474;10.768;2023-08-07T08:26:07;4.15;;;1.83;;
19985;SDS011;10154;52.474;10.768;2023-08-07T08:28:32;4.88;;;1.90;;
19985;SDS011;10154;52.474;10.768;2023-08-07T08:30:57;3.45;;;1.60;;
19985;SDS011;10154;52.474;10.768;2023-08-07T08:33:23;4.55;;;1.80;;
19985;SDS011;10154;52.474;10.768;2023-08-07T08:35:48;7.10;;;1.80;;
19985;SDS011;10154;52.474;10.768;2023-08-07T08:38:14;4.32;;;1.50;;
19985;SDS011;10154;52.474;10.768;2023-08-07T08:40:41;2.75;;;1.52;;
19985;SDS011;10154;52.474;10.768;2023-08-07T08:43:07;3.20;;;1.67;;
19985;SDS011;10154;52.474;10.768;2023-08-07T08:45:35;3.13;;;1.40;;
19985;SDS011;10154;52.474;10.768;2023-08-07T08:48:04;4.18;;;1.55;;
19985;SDS011;10154;52.474;10.768;2023-08-07T08:50:30;5.93;;;1.70;;
19985;SDS011;10154;52.474;10.768;2023-08-07T08:52:57;2.67;;;1.40;;
19985;SDS011;10154;52.474;10.768;2023-08-07T08:55:23;4.38;;;1.50;;
19985;SDS011;10154;52.474;10.768;2023-08-07T08:57:49;3.75;;;1.40;;
19985;SDS011;10154;52.474;10.768;2023-08-07T09:00:15;2.75;;;1.33;;
19985;SDS011;10154;52.474;10.768;2023-08-07T09:02:45;3.42;;;1.42;;
19985;SDS011;10154;52.474;10.768;2023-08-07T09:05:12;4.45;;;1.33;;
19985;SDS011;10154;52.474;10.768;2023-08-07T09:07:37;4.38;;;1.85;;
19985;SDS011;10154;52.474;10.768;2023-08-07T09:10:03;3.90;;;1.23;;
19985;SDS011;10154;52.474;10.768;2023-08-07T09:12:29;4.10;;;1.40;;
19985;SDS011;10154;52.474;10.768;2023-08-07T09:14:56;2.35;;;1.15;;
19985;SDS011;10154;52.474;10.768;2023-08-07T09:17:23;2.97;;;1.20;;
19985;SDS011;10154;52.474;10.768;2023-08-07T09:19:49;5.03;;;1.33;;
19985;SDS011;10154;52.474;10.768;2023-08-07T09:22:16;3.83;;;1.17;;
19985;SDS011;10154;52.474;10.768;2023-08-07T09:24:41;2.38;;;1.23;;
19985;SDS011;10154;52.474;10.768;2023-08-07T09:27:07;5.80;;;1.55;;
19985;SDS011;10154;52.474;10.768;2023-08-07T09:29:32;2.28;;;1.13;;
19985;SDS011;10154;52.474;10.768;2023-08-07T09:32:05;4.45;;;1.50;;
19985;SDS011;10154;52.474;10.768;2023-08-07T09:34:31;2.88;;;1.30;;
19985;SDS011;10154;52.474;10.768;2023-08-07T09:36:57;4.13;;;1.38;;
19985;SDS011;10154;52.474;10.768;2023-08-07T09:39:23;5.35;;;1.90;;
19985;SDS011;10154;52.474;10.768;2023-08-07T09:41:53;2.35;;;1.50;;
19985;SDS011;10154;52.474;10.768;2023-08-07T09:44:18;3.97;;;1.20;;
19985;SDS011;10154;52.474;10.768;2023-08-07T09:46:44;2.92;;;1.40;;
19985;SDS011;10154;52.474;10.768;2023-08-07T09:49:10;4.05;;;1.40;;
19985;SDS011;10154;52.474;10.768;2023-08-07T09:51:42;4.75;;;1.38;;
19985;SDS011;10154;52.474;10.768;2023-08-07T09:54:08;9.90;;;1.70;;
19985;SDS011;10154;52.474;10.768;2023-08-07T09:56:34;4.53;;;1.70;;
19985;SDS011;10154;52.474;10.768;2023-08-07T09:59:00;4.05;;;1.50;;
19985;SDS011;10154;52.474;10.768;2023-08-07T10:01:26;5.15;;;1.38;;
19985;SDS011;10154;52.474;10.768;2023-08-07T10:03:51;7.25;;;1.60;;
19985;SDS011;10154;52.474;10.768;2023-08-07T10:06:17;5.18;;;1.58;;
19985;SDS011;10154;52.474;10.768;2023-08-07T10:08:44;6.57;;;1.60;;
19985;SDS011;10154;52.474;10.768;2023-08-07T10:11:10;10.68;;;1.80;;
19985;SDS011;10154;52.474;10.768;2023-08-07T10:13:36;9.02;;;1.60;;
19985;SDS011;10154;52.474;10.768;2023-08-07T10:16:02;5.18;;;1.50;;
19985;SDS011;10154;52.474;10.768;2023-08-07T10:18:28;4.72;;;1.40;;
19985;SDS011;10154;52.474;10.768;2023-08-07T10:20:54;6.63;;;1.70;;
19985;SDS011;10154;52.474;10.768;2023-08-07T10:23:19;4.15;;;1.40;;
19985;SDS011;10154;52.474;10.768;2023-08-07T10:25:46;7.35;;;1.67;;
19985;SDS011;10154;52.474;10.768;2023-08-07T10:28:15;9.32;;;1.70;;
19985;SDS011;10154;52.474;10.768;2023-08-07T10:30:42;9.95;;;1.92;;
19985;SDS011;10154;52.474;10.768;2023-08-07T10:33:07;6.30;;;1.80;;
19985;SDS011;10154;52.474;10.768;2023-08-07T10:35:34;5.82;;;1.50;;
19985;SDS011;10154;52.474;10.768;2023-08-07T10:38:09;7.25;;;1.80;;
19985;SDS011;10154;52.474;10.768;2023-08-07T10:43:28;3.80;;;1.40;;
19985;SDS011;10154;52.474;10.768;2023-08-07T10:46:04;6.15;;;1.65;;
19985;SDS011;10154;52.474;10.768;2023-08-07T10:48:31;4.25;;;1.48;;
19985;SDS011;10154;52.474;10.768;2023-08-07T10:51:03;7.22;;;1.60;;
19985;SDS011;10154;52.474;10.768;2023-08-07T10:56:04;5.10;;;1.42;;
19985;SDS011;10154;52.474;10.768;2023-08-07T10:58:38;7.40;;;1.50;;
19985;SDS011;10154;52.474;10.768;2023-08-07T11:01:15;7.25;;;1.65;;
19985;SDS011;10154;52.474;10.768;2023-08-07T11:03:51;6.97;;;1.63;;
19985;SDS011;10154;52.474;10.768;2023-08-07T11:06:24;7.40;;;1.58;;
19985;SDS011;10154;52.474;10.768;2023-08-07T11:08:53;4.45;;;1.50;;
19985;SDS011;10154;52.474;10.768;2023-08-07T11:11:19;5.32;;;1.55;;
19985;SDS011;10154;52.474;10.768;2023-08-07T11:13:44;5.45;;;1.30;;
19985;SDS011;10154;52.474;10.768;2023-08-07T11:16:11;6.72;;;1.60;;
19985;SDS011;10154;52.474;10.768;2023-08-07T11:18:36;7.63;;;2.05;;
19985;SDS011;10154;52.474;10.768;2023-08-07T11:21:05;11.38;;;2.35;;
19985;SDS011;10154;52.474;10.768;2023-08-07T11:23:31;4.93;;;1.48;;
19985;SDS011;10154;52.474;10.768;2023-08-07T11:25:56;5.93;;;1.52;;
19985;SDS011;10154;52.474;10.768;2023-08-07T11:28:22;7.45;;;2.13;;
19985;SDS011;10154;52.474;10.768;2023-08-07T11:30:50;8.95;;;1.80;;
19985;SDS011;10154;52.474;10.768;2023-08-07T11:33:19;9.85;;;1.65;;
19985;SDS011;10154;52.474;10.768;2023-08-07T11:35:45;6.55;;;1.60;;
19985;SDS011;10154;52.474;10.768;2023-08-07T11:38:11;9.00;;;1.63;;
19985;SDS011;10154;52.474;10.768;2023-08-07T11:40:37;6.03;;;1.75;;
19985;SDS011;10154;52.474;10.768;2023-08-07T11:43:02;8.20;;;1.60;;
19985;SDS011;10154;52.474;10.768;2023-08-07T11:45:28;7.40;;;1.63;;
19985;SDS011;10154;52.474;10.768;2023-08-07T11:47:53;7.32;;;1.77;;
19985;SDS011;10154;52.474;10.768;2023-08-07T11:50:21;6.97;;;1.70;;
19985;SDS011;10154;52.474;10.768;2023-08-07T11:52:46;7.43;;;1.60;;
19985;SDS011;10154;52.474;10.768;2023-08-07T11:55:13;8.65;;;1.75;;
19985;SDS011;10154;52.474;10.768;2023-08-07T11:57:39;7.35;;;1.63;;
19985;SDS011;10154;52.474;10.768;2023-08-07T12:00:08;5.80;;;1.75;;
19985;SDS011;10154;52.474;10.768;2023-08-07T12:02:44;8.27;;;1.67;;
19985;SDS011;10154;52.474;10.768;2023-08-07T12:05:10;4.25;;;1.60;;
19985;SDS011;10154;52.474;10.768;2023-08-07T12:07:36;7.97;;;2.00;;
19985;SDS011;10154;52.474;10.768;2023-08-07T12:10:11;6.20;;;1.60;;
19985;SDS011;10154;52.474;10.768;2023-08-07T12:12:36;9.38;;;1.55;;
19985;SDS011;10154;52.474;10.768;2023-08-07T12:15:03;11.73;;;1.85;;
19985;SDS011;10154;52.474;10.768;2023-08-07T12:17:31;11.07;;;1.30;;
19985;SDS011;10154;52.474;10.768;2023-08-07T12:19:57;7.63;;;1.42;;
19985;SDS011;10154;52.474;10.768;2023-08-07T12:22:23;8.15;;;1.60;;
19985;SDS011;10154;52.474;10.768;2023-08-07T12:24:48;7.38;;;1.73;;
19985;SDS011;10154;52.474;10.768;2023-08-07T12:27:14;7.47;;;1.70;;
19985;SDS011;10154;52.474;10.768;2023-08-07T12:29:39;6.78;;;2.25;;
19985;SDS011;10154;52.474;10.768;2023-08-07T12:32:05;7.07;;;1.75;;
19985;SDS011;10154;52.474;10.768;2023-08-07T12:34:30;10.30;;;1.60;;
19985;SDS011;10154;52.474;10.768;2023-08-07T12:36:57;8.38;;;1.65;;
19985;SDS011;10154;52.474;10.768;2023-08-07T12:39:22;10.20;;;1.60;;
19985;SDS011;10154;52.474;10.768;2023-08-07T12:41:48;8.23;;;1.63;;
19985;SDS011;10154;52.474;10.768;2023-08-07T12:44:14;5.65;;;1.30;;
19985;SDS011;10154;52.474;10.768;2023-08-07T12:46:40;3.50;;;1.20;;
19985;SDS011;10154;52.474;10.768;2023-08-07T12:49:08;2.92;;;1.00;;
19985;SDS011;10154;52.474;10.768;2023-08-07T12:51:34;5.40;;;1.30;;
19985;SDS011;10154;52.474;10.768;2023-08-07T12:54:00;13.25;;;2.05;;
19985;SDS011;10154;52.474;10.768;2023-08-07T12:56:25;3.35;;;0.85;;
19985;SDS011;10154;52.474;10.768;2023-08-07T12:58:50;2.40;;;0.77;;
19985;SDS011;10154;52.474;10.768;2023-08-07T13:01:16;5.53;;;1.30;;
19985;SDS011;10154;52.474;10.768;2023-08-07T13:03:41;4.55;;;0.90;;
19985;SDS011;10154;52.474;10.768;2023-08-07T13:06:07;1.92;;;0.95;;
19985;SDS011;10154;52.474;10.768;2023-08-07T13:08:33;4.57;;;1.15;;
19985;SDS011;10154;52.474;10.768;2023-08-07T13:11:00;3.45;;;1.40;;
19985;SDS011;10154;52.474;10.768;2023-08-07T13:13:26;3.50;;;1.00;;
19985;SDS011;10154;52.474;10.768;2023-08-07T13:15:53;3.45;;;1.00;;
19985;SDS011;10154;52.474;10.768;2023-08-07T13:18:18;3.88;;;1.10;;
19985;SDS011;10154;52.474;10.768;2023-08-07T13:20:44;5.00;;;1.58;;
19985;SDS011;10154;52.474;10.768;2023-08-07T13:23:10;5.30;;;1.25;;
19985;SDS011;10154;52.474;10.768;2023-08-07T13:25:36;3.53;;;1.05;;
19985;SDS011;10154;52.474;10.768;2023-08-07T13:28:02;3.78;;;1.10;;
19985;SDS011;10154;52.474;10.768;2023-08-07T13:30:32;3.25;;;1.08;;
19985;SDS011;10154;52.474;10.768;2023-08-07T13:32:57;4.28;;;0.95;;
19985;SDS011;10154;52.474;10.768;2023-08-07T13:35:23;4.55;;;1.17;;
19985;SDS011;10154;52.474;10.768;2023-08-07T13:37:48;5.82;;;1.20;;
19985;SDS011;10154;52.474;10.768;2023-08-07T13:40:13;5.70;;;1.33;;
19985;SDS011;10154;52.474;10.768;2023-08-07T13:42:39;4.35;;;1.20;;
19985;SDS011;10154;52.474;10.768;2023-08-07T13:45:04;3.85;;;1.15;;
19985;SDS011;10154;52.474;10.768;2023-08-07T13:47:30;5.40;;;1.30;;
19985;SDS011;10154;52.474;10.768;2023-08-07T13:49:55;4.28;;;1.20;;
19985;SDS011;10154;52.474;10.768;2023-08-07T13:52:23;2.85;;;1.00;;
19985;SDS011;10154;52.474;10.768;2023-08-07T13:54:48;7.03;;;1.27;;
19985;SDS011;10154;52.474;10.768;2023-08-07T13:57:14;3.92;;;1.13;;
19985;SDS011;10154;52.474;10.768;2023-08-07T13:59:40;4.65;;;1.20;;
19985;SDS011;10154;52.474;10.768;2023-08-07T14:02:06;3.53;;;1.30;;
19985;SDS011;10154;52.474;10.768;2023-08-07T14:04:31;6.20;;;1.50;;
19985;SDS011;10154;52.474;10.768;2023-08-07T14:06:57;6.43;;;1.15;;
19985;SDS011;10154;52.474;10.768;2023-08-07T14:09:23;8.00;;;1.33;;
19985;SDS011;10154;52.474;10.768;2023-08-07T14:11:49;4.82;;;1.20;;
19985;SDS011;10154;52.474;10.768;2023-08-07T14:14:14;2.67;;;1.10;;
19985;SDS011;10154;52.474;10.768;2023-08-07T14:16:40;5.60;;;1.20;;
19985;SDS011;10154;52.474;10.768;2023-08-07T14:19:05;3.65;;;1.10;;
19985;SDS011;10154;52.474;10.768;2023-08-07T14:21:31;5.82;;;1.10;;
19985;SDS011;10154;52.474;10.768;2023-08-07T14:23:56;3.88;;;1.30;;
19985;SDS011;10154;52.474;10.768;2023-08-07T14:26:22;3.05;;;1.00;;
19985;SDS011;10154;52.474;10.768;2023-08-07T14:28:47;5.97;;;1.13;;
19985;SDS011;10154;52.474;10.768;2023-08-07T14:31:12;5.15;;;1.10;;
19985;SDS011;10154;52.474;10.768;2023-08-07T14:33:38;6.60;;;1.40;;